Time;durP1;ratioP1;P1;durP2;ratioP2;P2;SDS_P1;SDS_P2;PMS_P1;PMS_P2;Temp;Humidity;BMP_temperature;BMP_pressure;BME280_temperature;BME280_humidity;BME280_pressure;Samples;Min_cycle;Max_cycle;Signal;HPM_P1;HPM_P2
2021/06/17 00:02:15;;;;;;;7.65;6.95;;;24.70;99.90;;;;;;5033413;28;20029;-92
2021/06/17 00:04:40;;;;;;;7.60;7.00;;;24.60;99.90;;;;;;5033624;28;20036;-93
2021/06/17 00:07:06;;;;;;;7.70;6.90;;;24.70;99.90;;;;;;5015641;28;20030;-91
2021/06/17 00:09:32;;;;;;;7.40;6.78;;;24.60;99.90;;;;;;5033015;28;20026;-93
2021/06/17 00:12:01;;;;;;;7.47;6.82;;;24.60;99.90;;;;;;5033774;28;20026;-93
2021/06/17 00:14:28;;;;;;;7.22;6.53;;;24.50;99.90;;;;;;5015899;28;20032;-92
2021/06/17 00:16:55;;;;;;;7.95;7.15;;;24.50;99.90;;;;;;5016123;28;20040;-93
2021/06/17 00:19:21;;;;;;;9.38;7.38;;;24.60;99.90;;;;;;5033109;28;20021;-93
2021/06/17 00:21:47;;;;;;;7.82;6.80;;;24.60;99.90;;;;;;5033562;28;20053;-93
2021/06/17 00:24:13;;;;;;;7.43;6.70;;;24.60;99.90;;;;;;5035184;28;20490;-93
2021/06/17 00:26:39;;;;;;;7.43;6.82;;;24.60;99.90;;;;;;5037101;28;20106;-93
2021/06/17 00:29:04;;;;;;;7.95;7.25;;;24.60;99.90;;;;;;5037251;28;20491;-93
2021/06/17 00:31:30;;;;;;;7.53;6.85;;;24.60;99.90;;;;;;5037337;28;20022;-93
2021/06/17 00:33:56;;;;;;;7.40;6.70;;;24.60;99.90;;;;;;5019240;28;20447;-93
2021/06/17 00:36:21;;;;;;;11.23;7.40;;;24.50;99.90;;;;;;5036868;28;20025;-93
2021/06/17 00:38:47;;;;;;;8.02;7.22;;;24.50;99.90;;;;;;5036433;28;20038;-92
2021/06/17 00:41:13;;;;;;;7.85;6.95;;;24.30;99.90;;;;;;5037177;28;20100;-93
2021/06/17 00:43:39;;;;;;;7.15;6.45;;;24.30;99.90;;;;;;5036593;28;20095;-92
2021/06/17 00:46:05;;;;;;;7.30;6.60;;;24.20;99.90;;;;;;5035621;28;20025;-92
2021/06/17 00:48:31;;;;;;;7.38;6.63;;;24.10;99.90;;;;;;5036729;28;20028;-93
2021/06/17 00:50:59;;;;;;;7.22;6.60;;;24.10;99.90;;;;;;5035697;28;20041;-91
2021/06/17 00:53:29;;;;;;;7.00;6.40;;;24.10;99.90;;;;;;5035768;28;20398;-92
2021/06/17 00:55:56;;;;;;;7.03;6.53;;;24.00;99.90;;;;;;5018282;28;20022;-93
2021/06/17 00:58:22;;;;;;;6.85;6.15;;;24.00;99.90;;;;;;5036442;28;20041;-93
2021/06/17 01:00:48;;;;;;;7.80;6.85;;;24.10;99.90;;;;;;5018495;28;20049;-93
2021/06/17 01:03:14;;;;;;;10.02;7.22;;;24.00;99.90;;;;;;5036252;28;20100;-93
2021/06/17 01:05:40;;;;;;;7.35;6.65;;;23.90;99.90;;;;;;5018587;28;20032;-93
2021/06/17 01:08:30;;;;;;;7.05;6.45;;;23.90;99.90;;;;;;5035925;28;20105;-92
2021/06/17 01:11:21;;;;;;;9.45;7.38;;;24.00;99.90;;;;;;5015247;28;20090;-93
2021/06/17 01:13:55;;;;;;;8.10;6.57;;;24.00;99.90;;;;;;5016921;28;20025;-93
2021/06/17 01:16:35;;;;;;;8.23;7.22;;;24.00;99.90;;;;;;5030732;28;20036;-93
2021/06/17 01:19:32;;;;;;;7.40;6.80;;;24.00;99.90;;;;;;5018564;28;20095;-92
2021/06/17 01:22:29;;;;;;;9.90;7.10;;;23.90;99.90;;;;;;5035099;28;20025;-86
2021/06/17 01:25:15;;;;;;;7.68;6.85;;;23.90;99.90;;;;;;5046955;28;20037;-93
2021/06/17 01:28:05;;;;;;;8.82;7.35;;;24.00;99.90;;;;;;5056288;28;20025;-93
2021/06/17 01:30:36;;;;;;;7.82;6.95;;;24.00;99.90;;;;;;5046334;28;20072;-93
2021/06/17 01:33:05;;;;;;;7.47;6.75;;;23.90;99.90;;;;;;5018382;28;20029;-93
2021/06/17 01:35:39;;;;;;;7.72;7.00;;;24.00;99.90;;;;;;5034973;28;20055;-94
2021/06/17 01:38:06;;;;;;;7.47;6.85;;;24.00;99.90;;;;;;5035344;28;20106;-94
2021/06/17 01:40:33;;;;;;;7.28;6.68;;;24.10;99.90;;;;;;5035833;28;20044;-93
2021/06/17 01:43:00;;;;;;;7.65;6.97;;;24.10;99.90;;;;;;5035324;28;20043;-93
2021/06/17 01:45:26;;;;;;;8.68;7.03;;;24.10;99.90;;;;;;5035854;28;20055;-93
2021/06/17 01:47:53;;;;;;;8.07;7.28;;;24.10;99.90;;;;;;5035760;28;20029;-93
2021/06/17 01:50:24;;;;;;;8.02;7.22;;;24.10;99.90;;;;;;5015822;28;20018;-93
2021/06/17 01:52:52;;;;;;;8.23;7.43;;;24.10;99.90;;;;;;5034540;28;20056;-93
2021/06/17 01:55:18;;;;;;;8.13;7.30;;;24.10;99.90;;;;;;5035738;28;20017;-93
2021/06/17 01:57:45;;;;;;;7.88;7.13;;;24.20;99.90;;;;;;5035676;28;20064;-93
2021/06/17 02:00:11;;;;;;;7.63;6.90;;;24.30;99.90;;;;;;5028934;28;20030;-93
2021/06/17 02:02:39;;;;;;;7.70;6.97;;;24.30;99.90;;;;;;5016625;28;20038;-93
2021/06/17 02:05:07;;;;;;;8.35;7.50;;;24.30;99.90;;;;;;5055257;28;20104;-94
2021/06/17 02:07:34;;;;;;;8.80;8.00;;;24.20;99.90;;;;;;5036544;28;20040;-93
2021/06/17 02:10:00;;;;;;;9.27;7.47;;;24.10;99.90;;;;;;5035332;28;20030;-93
2021/06/17 02:12:26;;;;;;;9.07;7.53;;;24.20;99.90;;;;;;5035007;28;20104;-94
2021/06/17 02:14:53;;;;;;;9.50;7.75;;;24.30;99.90;;;;;;5035175;28;20045;-93
2021/06/17 02:17:21;;;;;;;8.38;7.63;;;24.40;99.90;;;;;;5035057;28;20033;-93
2021/06/17 02:19:50;;;;;;;9.43;7.63;;;24.50;99.90;;;;;;5035305;28;20029;-94
2021/06/17 02:22:18;;;;;;;8.15;7.35;;;24.50;99.90;;;;;;5034821;28;20032;-94
2021/06/17 02:24:47;;;;;;;8.10;7.43;;;24.50;99.90;;;;;;5027462;28;20046;-93
2021/06/17 02:27:17;;;;;;;8.38;7.57;;;24.50;99.90;;;;;;5015251;28;20034;-93
2021/06/17 02:29:45;;;;;;;8.95;8.00;;;24.40;99.90;;;;;;5015207;28;20045;-93
2021/06/17 02:32:19;;;;;;;8.57;7.78;;;24.40;99.90;;;;;;5014883;28;20026;-93
2021/06/17 02:34:47;;;;;;;8.75;7.95;;;24.30;99.90;;;;;;5010866;28;20113;-93
2021/06/17 02:37:15;;;;;;;10.00;7.85;;;24.40;99.90;;;;;;4999591;28;20418;-93
2021/06/17 02:39:41;;;;;;;9.00;8.10;;;24.40;99.90;;;;;;5019526;28;20573;-93
2021/06/17 02:42:08;;;;;;;10.02;9.02;;;24.40;99.90;;;;;;5013312;28;20112;-93
2021/06/17 02:44:34;;;;;;;8.38;7.57;;;24.30;99.90;;;;;;5014134;28;20034;-93
2021/06/17 02:46:59;;;;;;;8.50;7.60;;;24.30;99.90;;;;;;5000316;28;20036;-93
2021/06/17 02:49:25;;;;;;;8.40;7.53;;;24.30;99.90;;;;;;5013118;28;20052;-93
2021/06/17 02:51:51;;;;;;;8.55;7.65;;;24.20;99.90;;;;;;5013313;28;20026;-93
2021/06/17 02:54:20;;;;;;;8.68;7.70;;;24.20;99.90;;;;;;5013799;28;20120;-93
2021/06/17 02:56:58;;;;;;;8.68;7.78;;;24.10;99.90;;;;;;5013099;28;20026;-94
2021/06/17 02:59:43;;;;;;;8.50;7.78;;;24.20;99.90;;;;;;5024511;28;20116;-93
2021/06/17 03:02:19;;;;;;;8.32;7.60;;;24.20;99.90;;;;;;5000965;28;20049;-93
2021/06/17 03:04:52;;;;;;;8.77;7.97;;;24.20;99.90;;;;;;5012200;28;20026;-93
2021/06/17 03:07:26;;;;;;;9.30;8.10;;;24.10;99.90;;;;;;5013383;28;20423;-93
2021/06/17 03:10:19;;;;;;;8.63;7.88;;;24.10;99.90;;;;;;5013066;28;20080;-94
2021/06/17 03:12:47;;;;;;;8.80;7.90;;;24.10;99.90;;;;;;5011392;28;20511;-94
2021/06/17 03:15:13;;;;;;;9.27;7.90;;;24.10;99.90;;;;;;4996081;28;20042;-93
2021/06/17 03:17:49;;;;;;;8.88;8.18;;;24.20;99.90;;;;;;5013350;28;20111;-93
2021/06/17 03:20:17;;;;;;;8.13;7.43;;;24.30;99.90;;;;;;5013002;28;20026;-94
2021/06/17 03:22:50;;;;;;;8.90;8.20;;;24.30;99.90;;;;;;5002413;28;20030;-93
2021/06/17 03:25:19;;;;;;;8.82;8.00;;;24.20;99.90;;;;;;5017666;28;20040;-92
2021/06/17 03:27:52;;;;;;;9.18;8.30;;;24.30;99.90;;;;;;5014730;28;20426;-94
2021/06/17 03:30:21;;;;;;;9.75;8.23;;;24.10;99.90;;;;;;5024258;28;20033;-93
2021/06/17 03:32:48;;;;;;;8.30;7.60;;;24.10;99.90;;;;;;5030774;28;20052;-94
2021/06/17 03:35:17;;;;;;;8.55;7.85;;;24.10;99.90;;;;;;5014547;28;20034;-94
2021/06/17 03:37:43;;;;;;;10.07;8.57;;;24.10;99.90;;;;;;5032866;28;20091;-93
2021/06/17 03:40:09;;;;;;;8.95;8.13;;;24.10;99.90;;;;;;5033863;28;20025;-93
2021/06/17 03:42:37;;;;;;;10.05;9.10;;;23.90;99.90;;;;;;5033907;28;20067;-92
2021/06/17 03:45:03;;;;;;;10.40;9.13;;;23.80;99.90;;;;;;5033780;28;20018;-93
2021/06/17 03:47:30;;;;;;;9.93;8.98;;;23.70;99.90;;;;;;5013418;28;20037;-92
2021/06/17 03:49:57;;;;;;;9.82;9.02;;;23.80;99.90;;;;;;5016323;28;20036;-93
2021/06/17 03:52:24;;;;;;;10.15;9.13;;;23.80;99.90;;;;;;5033898;28;20025;-92
2021/06/17 03:54:50;;;;;;;10.02;9.02;;;23.80;99.90;;;;;;5015660;28;20457;-92
2021/06/17 03:57:21;;;;;;;9.68;8.85;;;23.70;99.90;;;;;;5033959;28;20034;-92
2021/06/17 03:59:47;;;;;;;10.02;8.77;;;23.80;99.90;;;;;;5038880;28;20025;-92
2021/06/17 04:02:14;;;;;;;10.32;9.32;;;23.80;99.90;;;;;;5041930;28;20068;-92
2021/06/17 04:04:40;;;;;;;10.25;9.25;;;23.80;99.90;;;;;;5037125;28;20559;-93
2021/06/17 04:07:10;;;;;;;13.43;9.13;;;23.70;99.90;;;;;;5019413;28;20510;-92
2021/06/17 04:09:38;;;;;;;10.00;8.98;;;23.70;99.90;;;;;;5037255;28;20041;-92
2021/06/17 04:12:09;;;;;;;10.25;9.35;;;23.70;99.90;;;;;;5037454;28;20029;-92
2021/06/17 04:14:38;;;;;;;11.63;9.07;;;23.70;99.90;;;;;;5019116;28;20219;-93
2021/06/17 04:17:06;;;;;;;11.63;9.25;;;23.60;99.90;;;;;;5016889;28;20049;-92
2021/06/17 04:19:33;;;;;;;9.57;8.77;;;23.60;99.90;;;;;;5033938;28;20057;-93
2021/06/17 04:22:02;;;;;;;10.35;9.35;;;23.70;99.90;;;;;;5037332;28;20052;-92
2021/06/17 04:24:35;;;;;;;12.57;9.32;;;23.70;99.90;;;;;;5020091;28;20042;-93
2021/06/17 04:27:01;;;;;;;10.02;8.60;;;23.80;99.90;;;;;;5016356;28;20026;-93
2021/06/17 04:29:28;;;;;;;10.57;9.32;;;23.80;99.90;;;;;;5016215;28;20022;-93
2021/06/17 04:31:56;;;;;;;10.20;9.30;;;23.80;99.90;;;;;;5018251;28;20029;-93
2021/06/17 04:34:23;;;;;;;11.82;9.48;;;23.80;99.90;;;;;;5036982;28;20029;-93
2021/06/17 04:36:50;;;;;;;10.32;9.32;;;23.70;99.90;;;;;;5036989;28;20062;-93
2021/06/17 04:39:16;;;;;;;10.70;9.50;;;23.70;99.90;;;;;;5014168;28;20113;-93
2021/06/17 04:41:43;;;;;;;10.38;9.40;;;23.90;99.90;;;;;;5017928;28;20393;-93
2021/06/17 04:44:10;;;;;;;9.88;8.98;;;23.90;99.90;;;;;;5036699;28;20524;-94
2021/06/17 04:46:36;;;;;;;10.98;9.95;;;24.00;99.90;;;;;;5019026;28;20065;-93
2021/06/17 04:49:03;;;;;;;14.50;9.40;;;24.00;99.90;;;;;;5037104;28;20521;-93
2021/06/17 04:51:36;;;;;;;10.63;9.52;;;24.10;99.90;;;;;;5034587;28;20029;-94
2021/06/17 04:54:06;;;;;;;11.10;10.00;;;24.20;99.90;;;;;;5036017;28;20104;-94
2021/06/17 04:56:31;;;;;;;10.80;9.68;;;24.30;99.90;;;;;;5035663;28;20037;-94
2021/06/17 04:58:57;;;;;;;11.20;8.90;;;24.30;99.90;;;;;;5018092;28;20104;-93
2021/06/17 05:01:23;;;;;;;10.48;9.35;;;24.50;99.90;;;;;;5017100;28;20037;-93
2021/06/17 05:03:48;;;;;;;11.35;10.18;;;24.60;99.90;;;;;;5018201;28;20490;-93
2021/06/17 05:06:17;;;;;;;9.93;8.98;;;24.80;99.90;;;;;;5017619;28;20037;-94
2021/06/17 05:11:27;;;;;;;11.95;9.48;;;24.70;99.90;;;;;;5017465;28;20037;-93
2021/06/17 05:13:52;;;;;;;10.07;9.07;;;24.90;99.90;;;;;;5016381;28;20022;-93
2021/06/17 05:16:18;;;;;;;12.30;10.43;;;25.00;99.90;;;;;;4998475;28;20057;-94
2021/06/17 05:18:44;;;;;;;11.43;10.23;;;24.80;99.90;;;;;;5017733;28;20163;-93
2021/06/17 05:21:11;;;;;;;10.70;9.80;;;24.80;99.90;;;;;;5036254;28;20052;-93
2021/06/17 05:23:41;;;;;;;12.13;9.73;;;24.90;99.90;;;;;;5018375;28;20399;-93
2021/06/17 05:26:07;;;;;;;11.07;10.00;;;24.90;99.90;;;;;;5036198;28;20036;-93
2021/06/17 05:28:33;;;;;;;11.05;9.80;;;24.80;99.90;;;;;;5014641;28;20026;-93
2021/06/17 05:31:01;;;;;;;10.98;9.88;;;24.80;99.90;;;;;;5028037;28;20132;-93
2021/06/17 05:33:29;;;;;;;10.15;9.30;;;24.90;99.90;;;;;;5036042;28;20021;-94
2021/06/17 05:35:55;;;;;;;10.93;9.93;;;25.00;99.90;;;;;;5036010;28;20025;-93
2021/06/17 05:38:22;;;;;;;11.13;10.23;;;24.90;99.90;;;;;;5035924;28;20075;-94
2021/06/17 05:40:49;;;;;;;10.70;9.68;;;24.90;99.90;;;;;;5036179;28;20022;-93
2021/06/17 05:43:15;;;;;;;10.70;9.70;;;24.80;99.90;;;;;;5035253;28;20021;-94
2021/06/17 05:45:41;;;;;;;11.88;10.75;;;24.90;99.90;;;;;;5018213;28;20026;-96
2021/06/17 05:48:07;;;;;;;11.75;10.02;;;25.00;99.90;;;;;;5037517;28;20125;-93
2021/06/17 05:50:33;;;;;;;11.38;10.32;;;25.20;99.90;;;;;;5037317;28;20022;-94
2021/06/17 05:52:59;;;;;;;10.50;9.43;;;25.30;99.90;;;;;;5035566;28;20043;-91
2021/06/17 05:55:26;;;;;;;11.10;9.68;;;25.50;99.90;;;;;;5034668;28;20059;-94
2021/06/17 05:57:51;;;;;;;11.10;10.00;;;25.80;99.90;;;;;;5035043;28;20026;-94
2021/06/17 06:00:17;;;;;;;10.38;9.27;;;25.60;99.90;;;;;;5018011;28;20027;-93
2021/06/17 06:02:43;;;;;;;10.73;9.73;;;25.40;99.90;;;;;;5035194;28;20101;-93
2021/06/17 06:05:08;;;;;;;12.00;9.88;;;25.40;99.90;;;;;;5033442;28;20034;-93
2021/06/17 06:07:35;;;;;;;10.25;9.35;;;25.40;99.90;;;;;;5029582;28;20042;-93
2021/06/17 06:10:00;;;;;;;10.60;9.63;;;25.40;99.90;;;;;;5017045;28;20025;-93
2021/06/17 06:12:27;;;;;;;10.93;9.90;;;25.60;99.90;;;;;;5033950;28;20376;-94
2021/06/17 06:14:52;;;;;;;12.32;10.93;;;25.60;99.90;;;;;;5034164;28;20037;-95
2021/06/17 06:17:18;;;;;;;12.00;10.55;;;25.70;99.90;;;;;;5016923;28;20037;-94
2021/06/17 06:19:44;;;;;;;11.02;9.90;;;25.90;99.90;;;;;;5033739;28;20033;-93
2021/06/17 06:22:10;;;;;;;10.85;9.88;;;26.20;99.90;;;;;;5034673;28;20037;-94
2021/06/17 06:24:37;;;;;;;11.35;9.55;;;26.20;99.90;;;;;;5011526;28;20057;-94
2021/06/17 06:27:05;;;;;;;10.13;9.32;;;26.00;99.90;;;;;;5033814;28;20032;-95
2021/06/17 06:29:31;;;;;;;10.40;9.48;;;26.00;99.90;;;;;;5033667;28;20029;-94
2021/06/17 06:31:57;;;;;;;10.63;9.73;;;26.10;99.90;;;;;;5016758;28;20394;-94
2021/06/17 06:34:24;;;;;;;11.43;9.07;;;26.20;99.90;;;;;;5016474;28;20037;-92
2021/06/17 06:36:49;;;;;;;10.27;9.27;;;26.40;99.90;;;;;;5016823;28;20529;-95
2021/06/17 06:39:22;;;;;;;10.70;9.80;;;26.10;99.90;;;;;;5034421;28;20033;-95
2021/06/17 06:41:48;;;;;;;10.82;9.80;;;26.30;99.90;;;;;;5017443;28;20025;-96
2021/06/17 06:44:14;;;;;;;10.27;9.27;;;26.70;99.90;;;;;;5018656;28;20036;-96
2021/06/17 06:46:41;;;;;;;10.88;9.68;;;26.80;99.90;;;;;;5017524;28;20554;-96
2021/06/17 06:49:07;;;;;;;11.40;10.30;;;27.10;99.90;;;;;;5034467;28;20029;-96
2021/06/17 06:51:39;;;;;;;10.90;9.68;;;26.90;99.90;;;;;;5012900;28;20069;-96
2021/06/17 06:54:06;;;;;;;11.63;10.48;;;26.90;99.90;;;;;;5034962;28;20033;-96
2021/06/17 06:56:32;;;;;;;10.73;9.73;;;26.20;99.90;;;;;;5034479;28;20033;-96
2021/06/17 06:58:58;;;;;;;10.90;9.38;;;26.40;99.90;;;;;;5034345;28;20032;-96
2021/06/17 07:01:23;;;;;;;10.35;9.30;;;26.70;99.90;;;;;;5034775;28;20033;-96
2021/06/17 07:03:49;;;;;;;10.45;9.55;;;26.60;99.90;;;;;;5034885;28;20033;-96
2021/06/17 07:06:14;;;;;;;12.73;10.23;;;26.50;99.90;;;;;;5035212;28;20088;-96
2021/06/17 07:08:40;;;;;;;10.25;9.38;;;26.30;99.90;;;;;;5017258;28;20025;-96
2021/06/17 07:11:06;;;;;;;11.10;10.00;;;26.30;99.90;;;;;;5017137;28;20120;-96
2021/06/17 07:13:31;;;;;;;11.30;10.25;;;26.20;99.90;;;;;;5011895;28;20026;-96
2021/06/17 07:15:57;;;;;;;11.52;10.30;;;26.20;99.90;;;;;;5017114;28;20032;-96
2021/06/17 07:18:23;;;;;;;11.13;9.93;;;26.00;99.90;;;;;;5016614;28;20036;-96
2021/06/17 07:20:48;;;;;;;10.65;9.55;;;25.90;99.90;;;;;;5017152;28;20057;-96
2021/06/17 07:23:15;;;;;;;10.57;9.45;;;25.90;99.90;;;;;;5034172;28;20056;-96
2021/06/17 07:25:42;;;;;;;10.73;9.73;;;25.80;99.90;;;;;;5033436;28;20092;-96
2021/06/17 07:28:08;;;;;;;10.52;9.63;;;25.80;99.90;;;;;;5033698;28;20033;-96
2021/06/17 07:30:34;;;;;;;10.35;9.45;;;26.00;99.90;;;;;;5012192;28;20026;-96
2021/06/17 07:33:00;;;;;;;10.98;9.88;;;26.00;99.90;;;;;;5017135;28;20041;-96
2021/06/17 07:35:26;;;;;;;11.40;9.70;;;26.20;99.90;;;;;;5020728;28;20029;-96
2021/06/17 07:37:52;;;;;;;11.18;10.18;;;26.10;99.90;;;;;;5020495;28;20505;-96
2021/06/17 07:40:18;;;;;;;11.30;9.95;;;26.10;99.90;;;;;;5038555;28;20029;-96
2021/06/17 07:42:44;;;;;;;10.73;9.80;;;26.20;99.90;;;;;;5015812;28;20026;-96
2021/06/17 07:45:11;;;;;;;11.75;10.00;;;26.30;99.90;;;;;;5020540;28;20063;-96
2021/06/17 07:47:38;;;;;;;11.00;9.65;;;26.60;99.90;;;;;;5020025;28;20033;-96
2021/06/17 07:50:05;;;;;;;10.63;9.48;;;26.60;99.90;;;;;;5020577;28;20029;-96
2021/06/17 07:52:31;;;;;;;10.77;9.88;;;26.70;99.90;;;;;;5015786;28;20036;-96
2021/06/17 07:54:57;;;;;;;10.52;9.63;;;26.80;99.90;;;;;;5037200;28;20076;-96
2021/06/17 07:57:23;;;;;;;11.80;10.80;;;26.80;99.90;;;;;;5037865;28;20041;-96
2021/06/17 07:59:49;;;;;;;11.30;10.18;;;26.80;99.90;;;;;;5036963;28;20486;-96
2021/06/17 08:02:14;;;;;;;10.80;9.80;;;26.80;99.90;;;;;;5038001;28;20032;-96
2021/06/17 08:04:40;;;;;;;12.07;10.55;;;26.90;99.90;;;;;;5036955;28;20499;-96
2021/06/17 08:07:06;;;;;;;11.43;10.32;;;27.20;99.90;;;;;;5036702;28;20120;-96
2021/06/17 08:09:32;;;;;;;11.43;10.27;;;27.30;99.90;;;;;;5019296;28;20029;-94
2021/06/17 08:11:58;;;;;;;10.95;9.93;;;27.50;99.90;;;;;;5036624;28;20038;-94
2021/06/17 08:14:25;;;;;;;10.35;9.43;;;27.60;99.90;;;;;;5019237;28;20036;-94
2021/06/17 08:16:53;;;;;;;11.05;9.77;;;27.60;99.90;;;;;;5035735;28;20156;-94
2021/06/17 08:19:25;;;;;;;11.43;10.43;;;27.60;99.90;;;;;;5014932;28;20033;-95
2021/06/17 08:21:51;;;;;;;10.82;9.85;;;27.30;99.90;;;;;;5014255;28;20588;-94
2021/06/17 08:24:17;;;;;;;11.43;9.65;;;27.40;99.90;;;;;;5035922;28;20128;-94
2021/06/17 08:26:42;;;;;;;11.18;10.07;;;27.20;99.90;;;;;;5018871;28;20478;-94
2021/06/17 08:29:08;;;;;;;11.13;9.52;;;27.40;99.90;;;;;;5019189;28;20053;-95
2021/06/17 08:31:35;;;;;;;10.43;9.43;;;27.60;99.90;;;;;;5018378;28;20065;-94
2021/06/17 08:34:01;;;;;;;10.60;9.50;;;27.80;99.90;;;;;;5018475;28;20034;-95
2021/06/17 08:36:27;;;;;;;10.10;9.20;;;27.80;99.90;;;;;;5035863;28;20104;-95
2021/06/17 08:38:52;;;;;;;12.75;9.30;;;27.70;99.90;;;;;;5018480;28;20022;-94
2021/06/17 08:41:18;;;;;;;10.48;9.40;;;27.60;99.90;;;;;;5018856;28;20028;-94
2021/06/17 08:43:44;;;;;;;10.75;9.65;;;27.90;99.90;;;;;;5018416;28;20120;-94
2021/06/17 08:46:10;;;;;;;9.95;9.05;;;27.80;99.90;;;;;;5035615;28;20033;-94
2021/06/17 08:48:36;;;;;;;11.00;9.18;;;27.80;99.90;;;;;;5036070;28;20084;-94
2021/06/17 08:51:02;;;;;;;10.65;9.25;;;28.10;99.90;;;;;;5036102;28;20116;-95
2021/06/17 08:53:28;;;;;;;10.18;9.27;;;28.70;99.90;;;;;;5035398;28;20052;-94
2021/06/17 08:55:54;;;;;;;10.15;9.20;;;28.90;99.90;;;;;;5018981;28;20063;-94
2021/06/17 08:58:19;;;;;;;9.88;9.02;;;29.10;99.90;;;;;;5035230;28;20052;-95
2021/06/17 09:00:47;;;;;;;9.73;8.82;;;29.30;99.90;;;;;;5035864;28;20729;-94
2021/06/17 09:03:16;;;;;;;10.52;9.30;;;29.60;99.90;;;;;;5036584;28;20042;-94
2021/06/17 09:05:44;;;;;;;9.90;9.00;;;29.30;99.90;;;;;;5035560;28;20060;-94
2021/06/17 09:08:13;;;;;;;10.02;9.07;;;29.00;99.90;;;;;;5035763;28;20033;-94
2021/06/17 09:10:41;;;;;;;10.27;9.40;;;29.10;99.90;;;;;;5013817;28;20030;-94
2021/06/17 09:13:07;;;;;;;9.20;8.50;;;29.60;99.90;;;;;;5035137;28;20026;-94
2021/06/17 09:15:55;;;;;;;9.98;9.18;;;29.70;99.90;;;;;;5035698;28;20032;-95
2021/06/17 09:18:32;;;;;;;9.70;8.60;;;30.20;99.90;;;;;;5014127;28;20407;-93
2021/06/17 09:21:01;;;;;;;9.27;8.48;;;30.10;99.90;;;;;;5020153;28;20025;-94
2021/06/17 09:23:30;;;;;;;10.00;8.38;;;30.20;99.90;;;;;;5017723;28;20407;-93
2021/06/17 09:25:58;;;;;;;9.57;8.68;;;30.60;99.90;;;;;;5034806;28;20030;-94
2021/06/17 09:28:24;;;;;;;9.23;8.43;;;30.50;99.90;;;;;;5035248;28;20020;-93
2021/06/17 09:30:50;;;;;;;9.50;8.30;;;30.80;99.90;;;;;;5017373;28;20429;-93
2021/06/17 09:33:16;;;;;;;9.05;8.25;;;31.30;99.90;;;;;;5035299;28;20022;-94
2021/06/17 09:35:54;;;;;;;8.80;8.07;;;32.00;99.90;;;;;;5034855;28;20386;-94
2021/06/17 09:38:20;;;;;;;8.95;8.15;;;31.90;99.90;;;;;;5030755;28;20045;-94
2021/06/17 09:40:50;;;;;;;10.80;8.98;;;32.00;99.90;;;;;;5034530;28;20026;-93
2021/06/17 09:43:25;;;;;;;9.98;8.88;;;32.40;99.90;;;;;;5017172;28;20071;-93
2021/06/17 09:45:53;;;;;;;9.20;8.48;;;32.70;99.90;;;;;;5034690;28;20049;-94
2021/06/17 09:48:43;;;;;;;9.45;8.55;;;32.00;99.90;;;;;;5034981;28;20037;-94
2021/06/17 09:51:27;;;;;;;12.60;8.88;;;31.60;99.90;;;;;;5035038;28;20028;-94
2021/06/17 09:54:13;;;;;;;9.88;8.88;;;31.60;99.90;;;;;;5018682;28;20034;-94
2021/06/17 09:56:39;;;;;;;9.07;8.20;;;31.60;99.90;;;;;;5032108;28;20037;-94
2021/06/17 09:59:07;;;;;;;9.60;8.65;;;31.30;99.90;;;;;;5017468;28;20045;-93
2021/06/17 10:01:37;;;;;;;9.48;8.57;;;30.50;99.90;;;;;;5034611;28;20025;-94
2021/06/17 10:04:08;;;;;;;9.65;8.38;;;30.30;99.90;;;;;;5034024;28;20033;-93
2021/06/17 10:06:38;;;;;;;11.55;8.48;;;30.50;99.90;;;;;;5017002;28;20023;-93
2021/06/17 10:09:13;;;;;;;9.25;8.45;;;30.30;99.90;;;;;;5035024;28;20416;-94
2021/06/17 10:11:40;;;;;;;9.98;9.00;;;30.60;99.90;;;;;;5016412;28;20027;-94
2021/06/17 10:14:07;;;;;;;8.90;8.10;;;31.30;99.90;;;;;;5035113;28;20103;-95
2021/06/17 10:16:33;;;;;;;9.90;9.10;;;31.10;99.90;;;;;;5003451;28;20087;-94
2021/06/17 10:19:00;;;;;;;9.38;8.52;;;30.80;99.90;;;;;;5024826;28;20048;-93
2021/06/17 10:21:27;;;;;;;8.98;8.15;;;31.60;99.90;;;;;;5011924;28;20033;-94
2021/06/17 10:23:53;;;;;;;9.35;8.55;;;31.50;99.90;;;;;;5033807;28;20046;-94
2021/06/17 10:26:21;;;;;;;8.80;8.10;;;31.70;99.90;;;;;;5017249;28;20117;-94
2021/06/17 10:28:50;;;;;;;9.55;8.68;;;31.80;99.90;;;;;;5016071;28;20064;-94
2021/06/17 10:31:38;;;;;;;10.60;8.65;;;31.70;99.90;;;;;;5034117;28;20041;-93
2021/06/17 10:34:23;;;;;;;10.95;8.60;;;31.30;99.90;;;;;;5015815;28;20517;-94
2021/06/17 10:37:21;;;;;;;10.75;8.57;;;31.20;99.90;;;;;;5016141;28;20402;-94
2021/06/17 10:40:16;;;;;;;9.45;8.50;;;31.40;99.90;;;;;;5033965;28;20104;-93
2021/06/17 10:42:46;;;;;;;10.15;9.25;;;31.80;99.90;;;;;;5016122;28;20036;-94
2021/06/17 10:45:33;;;;;;;9.55;8.70;;;31.80;99.90;;;;;;5033398;28;20025;-94
2021/06/17 10:48:05;;;;;;;9.85;8.93;;;32.60;99.90;;;;;;5015709;28;20026;-96
2021/06/17 10:50:33;;;;;;;9.20;8.40;;;32.10;99.90;;;;;;5033558;28;20112;-94
2021/06/17 10:53:39;;;;;;;9.75;8.75;;;32.40;99.90;;;;;;5033727;28;20033;-94
2021/06/17 10:56:10;;;;;;;10.18;9.25;;;33.10;99.90;;;;;;5014734;28;20029;-94
2021/06/17 10:58:42;;;;;;;9.77;8.77;;;32.60;99.90;;;;;;5033046;28;20045;-94
2021/06/17 11:01:28;;;;;;;9.50;8.73;;;31.90;99.90;;;;;;5033424;28;20036;-93
2021/06/17 11:04:08;;;;;;;9.57;8.68;;;31.90;99.90;;;;;;5021739;28;20110;-94
2021/06/17 11:06:49;;;;;;;9.60;8.65;;;32.50;99.90;;;;;;5033399;28;20029;-94
2021/06/17 11:09:33;;;;;;;9.88;8.88;;;32.00;99.90;;;;;;5033340;28;20185;-94
2021/06/17 11:11:59;;;;;;;9.38;8.13;;;32.10;99.90;;;;;;5018666;28;20036;-94
2021/06/17 11:14:25;;;;;;;9.35;8.55;;;31.70;99.90;;;;;;5033876;28;20021;-95
2021/06/17 11:16:55;;;;;;;9.77;8.77;;;31.70;99.90;;;;;;5032413;28;20032;-95
2021/06/17 11:19:22;;;;;;;10.32;8.82;;;32.00;99.90;;;;;;5033245;28;20514;-95
2021/06/17 11:21:49;;;;;;;9.70;8.70;;;31.80;99.90;;;;;;5032823;28;20021;-94
2021/06/17 11:24:22;;;;;;;9.75;8.75;;;31.70;99.90;;;;;;5015163;28;20148;-95
2021/06/17 11:26:49;;;;;;;9.60;8.70;;;31.60;99.90;;;;;;5033103;28;20080;-94
2021/06/17 11:29:20;;;;;;;9.50;8.70;;;32.20;99.90;;;;;;5015982;28;20047;-94
2021/06/17 11:31:51;;;;;;;9.20;8.38;;;32.40;99.90;;;;;;5032515;28;20026;-94
2021/06/17 11:34:28;;;;;;;8.48;7.80;;;32.80;99.90;;;;;;5032775;28;20033;-95
2021/06/17 11:36:56;;;;;;;9.30;8.13;;;33.30;99.90;;;;;;5015170;28;20045;-95
2021/06/17 11:39:27;;;;;;;9.15;8.35;;;33.30;99.90;;;;;;5032741;28;20033;-94
2021/06/17 11:41:55;;;;;;;9.20;8.50;;;33.10;99.90;;;;;;5000183;28;20556;-94
2021/06/17 11:44:25;;;;;;;8.90;8.00;;;33.10;99.90;;;;;;5011653;28;20029;-94
2021/06/17 11:47:01;;;;;;;9.27;8.25;;;32.80;99.90;;;;;;5010549;28;20498;-94
2021/06/17 11:49:36;;;;;;;9.68;8.68;;;33.20;99.90;;;;;;5032988;28;20038;-94
2021/06/17 11:52:11;;;;;;;9.38;8.57;;;33.50;99.90;;;;;;5033037;28;20084;-94
2021/06/17 11:54:37;;;;;;;8.75;7.95;;;34.10;99.90;;;;;;5032749;28;20029;-94
2021/06/17 11:57:04;;;;;;;9.95;8.35;;;34.60;99.90;;;;;;5015151;28;20040;-94
2021/06/17 11:59:32;;;;;;;8.65;7.88;;;34.80;99.90;;;;;;5015053;28;20036;-94
2021/06/17 12:02:24;;;;;;;9.10;7.95;;;34.50;99.90;;;;;;5032465;28;20029;-94
2021/06/17 12:05:07;;;;;;;9.55;8.15;;;34.60;99.90;;;;;;5028361;28;20133;-94
2021/06/17 12:07:45;;;;;;;9.32;8.43;;;34.20;99.90;;;;;;5032584;28;20532;-94
2021/06/17 12:10:21;;;;;;;8.50;7.70;;;33.90;99.90;;;;;;5032829;28;20444;-94
2021/06/17 12:12:54;;;;;;;9.20;8.40;;;34.30;99.90;;;;;;5032188;28;20425;-94
2021/06/17 12:15:28;;;;;;;8.68;7.88;;;34.30;99.90;;;;;;5031972;28;20065;-94
2021/06/17 12:17:54;;;;;;;9.40;8.52;;;36.00;99.90;;;;;;5017743;28;20037;-94
2021/06/17 12:20:30;;;;;;;9.15;8.25;;;37.10;99.90;;;;;;5035863;28;20666;-94
2021/06/17 12:22:56;;;;;;;9.32;8.43;;;35.90;99.90;;;;;;5035290;28;20033;-94
2021/06/17 12:25:22;;;;;;;9.63;8.73;;;35.60;99.90;;;;;;5036046;28;20027;-94
2021/06/17 12:27:49;;;;;;;8.73;8.02;;;35.30;99.90;;;;;;5035992;28;20029;-94
2021/06/17 12:30:24;;;;;;;9.80;8.73;;;35.90;99.90;;;;;;5035715;28;20029;-93
2021/06/17 12:32:50;;;;;;;9.82;8.93;;;37.10;99.90;;;;;;5035899;28;20037;-94
2021/06/17 12:35:16;;;;;;;8.68;8.07;;;36.30;99.90;;;;;;5036303;28;20025;-94
2021/06/17 12:37:59;;;;;;;9.18;8.18;;;36.50;99.90;;;;;;5035412;28;20069;-94
2021/06/17 12:40:34;;;;;;;8.95;8.05;;;35.90;99.90;;;;;;5014013;28;20113;-93
2021/06/17 12:43:07;;;;;;;8.95;8.15;;;37.40;99.90;;;;;;5035542;28;20502;-94
2021/06/17 12:45:35;;;;;;;7.60;7.00;;;37.80;99.90;;;;;;5035094;28;20021;-93
2021/06/17 12:48:12;;;;;;;8.43;7.72;;;37.40;99.90;;;;;;5035635;28;20033;-94
2021/06/17 12:53:22;;;;;;;8.27;7.57;;;37.60;99.90;;;;;;5032238;28;20036;-93
2021/06/17 12:55:57;;;;;;;7.82;7.22;;;39.40;99.90;;;;;;5034833;28;20029;-95
2021/06/17 12:58:23;;;;;;;7.70;7.03;;;39.10;99.90;;;;;;5009843;28;20042;-94